< < Back
Terminal Aerodrome Forecast


Current Version              Previous Versions:   1  2  3  4  5  6  7  8  9  

Terminal Aerodrome Forecast

363
FTUS42 KGSP 281732
TAFAND
TAF
KAND 281732Z 2818/2918 19003KT P6SM VCTS BKN050CB
      TEMPO 2818/2821 4SM TSRA BKN040CB
     FM290100 00000KT P6SM SCT080 BKN250
     FM290900 00000KT 5SM BR SCT070
     FM291200 00000KT P6SM SCT060
     FM291700 20003KT P6SM SCT050=



Latest METAR

229
SAUS70 KWBC 290900 RRF
MTRAND
METAR KAND 290856Z AUTO 08005KT 10SM CLR 23/22 A2997 RMK AO2 SLP137
T02330217 55012


USA.gov is the U.S. government's official web portal to all federal, state and local government web resources and services.